sensor_id;sensor_type;location;lat;lon;timestamp;temperature;humidity
4637;DHT22;2331;48.806;9.140;2022-07-01T00:00:24;19.60;1.00
4637;DHT22;2331;48.806;9.140;2022-07-01T00:02:52;19.70;1.00
4637;DHT22;2331;48.806;9.140;2022-07-01T00:05:19;19.60;1.00
4637;DHT22;2331;48.806;9.140;2022-07-01T00:07:46;19.40;1.00
4637;DHT22;2331;48.806;9.140;2022-07-01T00:10:14;19.40;1.00
4637;DHT22;2331;48.806;9.140;2022-07-01T00:12:41;19.50;1.00
4637;DHT22;2331;48.806;9.140;2022-07-01T00:15:08;19.30;1.00
4637;DHT22;2331;48.806;9.140;2022-07-01T00:17:35;19.40;1.00
4637;DHT22;2331;48.806;9.140;2022-07-01T00:20:04;19.30;1.00
4637;DHT22;2331;48.806;9.140;2022-07-01T00:22:32;19.20;1.00
4637;DHT22;2331;48.806;9.140;2022-07-01T00:24:59;19.10;1.00
4637;DHT22;2331;48.806;9.140;2022-07-01T00:27:26;19.10;1.00
4637;DHT22;2331;48.806;9.140;2022-07-01T00:29:52;19.00;1.00
4637;DHT22;2331;48.806;9.140;2022-07-01T00:32:22;19.10;1.00
4637;DHT22;2331;48.806;9.140;2022-07-01T00:34:49;19.00;1.00
4637;DHT22;2331;48.806;9.140;2022-07-01T00:37:17;19.00;1.00
4637;DHT22;2331;48.806;9.140;2022-07-01T00:39:44;19.00;1.00
4637;DHT22;2331;48.806;9.140;2022-07-01T00:42:11;19.10;1.00
4637;DHT22;2331;48.806;9.140;2022-07-01T00:44:38;19.10;1.00
4637;DHT22;2331;48.806;9.140;2022-07-01T00:47:09;19.20;1.00
4637;DHT22;2331;48.806;9.140;2022-07-01T00:49:37;19.10;1.00
4637;DHT22;2331;48.806;9.140;2022-07-01T00:52:04;19.10;1.00
4637;DHT22;2331;48.806;9.140;2022-07-01T00:54:35;19.20;1.00
4637;DHT22;2331;48.806;9.140;2022-07-01T00:57:06;19.10;1.00
4637;DHT22;2331;48.806;9.140;2022-07-01T00:59:33;19.10;1.00
4637;DHT22;2331;48.806;9.140;2022-07-01T01:02:00;19.00;1.00
4637;DHT22;2331;48.806;9.140;2022-07-01T01:04:27;19.00;1.00
4637;DHT22;2331;48.806;9.140;2022-07-01T01:06:54;18.90;1.00
4637;DHT22;2331;48.806;9.140;2022-07-01T01:09:21;19.00;1.00
4637;DHT22;2331;48.806;9.140;2022-07-01T01:11:50;19.00;1.00
4637;DHT22;2331;48.806;9.140;2022-07-01T01:14:16;18.80;1.00
4637;DHT22;2331;48.806;9.140;2022-07-01T01:16:43;18.80;1.00
4637;DHT22;2331;48.806;9.140;2022-07-01T01:19:10;18.60;1.00
4637;DHT22;2331;48.806;9.140;2022-07-01T01:21:38;18.60;1.00
4637;DHT22;2331;48.806;9.140;2022-07-01T01:24:07;18.60;1.00
4637;DHT22;2331;48.806;9.140;2022-07-01T01:26:35;18.40;1.00
4637;DHT22;2331;48.806;9.140;2022-07-01T01:29:04;18.40;1.00
4637;DHT22;2331;48.806;9.140;2022-07-01T01:31:32;18.10;1.00
4637;DHT22;2331;48.806;9.140;2022-07-01T01:33:59;18.10;1.00
4637;DHT22;2331;48.806;9.140;2022-07-01T01:36:27;18.00;1.00
4637;DHT22;2331;48.806;9.140;2022-07-01T01:38:55;17.90;1.00
4637;DHT22;2331;48.806;9.140;2022-07-01T01:41:23;17.90;1.00
4637;DHT22;2331;48.806;9.140;2022-07-01T01:43:50;17.90;1.00
4637;DHT22;2331;48.806;9.140;2022-07-01T01:46:17;17.80;1.00
4637;DHT22;2331;48.806;9.140;2022-07-01T01:48:44;17.80;1.00
4637;DHT22;2331;48.806;9.140;2022-07-01T01:51:10;17.70;1.00
4637;DHT22;2331;48.806;9.140;2022-07-01T01:53:37;17.70;1.00
4637;DHT22;2331;48.806;9.140;2022-07-01T01:56:05;17.60;1.00
4637;DHT22;2331;48.806;9.140;2022-07-01T01:58:32;17.70;1.00
4637;DHT22;2331;48.806;9.140;2022-07-01T02:00:59;17.50;1.00
4637;DHT22;2331;48.806;9.140;2022-07-01T02:03:27;17.50;1.00
4637;DHT22;2331;48.806;9.140;2022-07-01T02:05:54;17.40;1.00
4637;DHT22;2331;48.806;9.140;2022-07-01T02:08:21;17.30;1.00
4637;DHT22;2331;48.806;9.140;2022-07-01T02:10:47;17.30;1.00
4637;DHT22;2331;48.806;9.140;2022-07-01T02:13:15;17.30;1.00
4637;DHT22;2331;48.806;9.140;2022-07-01T02:15:42;17.20;1.00
4637;DHT22;2331;48.806;9.140;2022-07-01T02:18:09;17.20;1.00
4637;DHT22;2331;48.806;9.140;2022-07-01T02:20:36;17.20;1.00
4637;DHT22;2331;48.806;9.140;2022-07-01T02:23:02;17.10;1.00
4637;DHT22;2331;48.806;9.140;2022-07-01T02:25:29;17.10;1.00
4637;DHT22;2331;48.806;9.140;2022-07-01T02:27:56;17.10;1.00
4637;DHT22;2331;48.806;9.140;2022-07-01T02:30:25;17.10;1.00
4637;DHT22;2331;48.806;9.140;2022-07-01T02:32:52;17.10;1.00
4637;DHT22;2331;48.806;9.140;2022-07-01T02:35:19;17.00;1.00
4637;DHT22;2331;48.806;9.140;2022-07-01T02:37:46;17.00;1.00
4637;DHT22;2331;48.806;9.140;2022-07-01T02:40:13;17.10;1.00
4637;DHT22;2331;48.806;9.140;2022-07-01T02:42:39;16.90;1.00
4637;DHT22;2331;48.806;9.140;2022-07-01T02:45:07;16.90;1.00
4637;DHT22;2331;48.806;9.140;2022-07-01T02:47:37;17.00;1.00
4637;DHT22;2331;48.806;9.140;2022-07-01T02:50:04;17.00;1.00
4637;DHT22;2331;48.806;9.140;2022-07-01T02:52:32;16.90;1.00
4637;DHT22;2331;48.806;9.140;2022-07-01T02:54:59;16.80;1.00
4637;DHT22;2331;48.806;9.140;2022-07-01T02:57:26;16.80;1.00
4637;DHT22;2331;48.806;9.140;2022-07-01T02:59:53;16.80;1.00
4637;DHT22;2331;48.806;9.140;2022-07-01T03:02:20;16.60;1.00
4637;DHT22;2331;48.806;9.140;2022-07-01T03:04:49;16.60;1.00
4637;DHT22;2331;48.806;9.140;2022-07-01T03:07:16;16.60;1.00
4637;DHT22;2331;48.806;9.140;2022-07-01T03:09:43;16.70;1.00
4637;DHT22;2331;48.806;9.140;2022-07-01T03:12:11;16.70;1.00
4637;DHT22;2331;48.806;9.140;2022-07-01T03:15:03;16.60;1.00
4637;DHT22;2331;48.806;9.140;2022-07-01T03:17:33;16.60;1.00
4637;DHT22;2331;48.806;9.140;2022-07-01T03:20:03;16.50;1.00
4637;DHT22;2331;48.806;9.140;2022-07-01T03:22:31;16.50;1.00
4637;DHT22;2331;48.806;9.140;2022-07-01T03:24:58;16.50;1.00
4637;DHT22;2331;48.806;9.140;2022-07-01T03:27:26;16.50;1.00
4637;DHT22;2331;48.806;9.140;2022-07-01T03:29:53;16.40;1.00
4637;DHT22;2331;48.806;9.140;2022-07-01T03:32:19;16.40;1.00
4637;DHT22;2331;48.806;9.140;2022-07-01T03:34:47;16.40;1.00
4637;DHT22;2331;48.806;9.140;2022-07-01T03:37:18;16.60;1.00
4637;DHT22;2331;48.806;9.140;2022-07-01T03:39:46;16.70;1.00
4637;DHT22;2331;48.806;9.140;2022-07-01T03:42:13;16.80;1.00
4637;DHT22;2331;48.806;9.140;2022-07-01T03:44:40;16.90;1.00
4637;DHT22;2331;48.806;9.140;2022-07-01T03:47:07;16.80;1.00
4637;DHT22;2331;48.806;9.140;2022-07-01T03:49:34;16.90;1.00
4637;DHT22;2331;48.806;9.140;2022-07-01T03:52:01;16.90;1.00
4637;DHT22;2331;48.806;9.140;2022-07-01T03:54:30;16.90;1.00
4637;DHT22;2331;48.806;9.140;2022-07-01T03:56:56;17.00;1.00
4637;DHT22;2331;48.806;9.140;2022-07-01T03:59:22;16.90;1.00
4637;DHT22;2331;48.806;9.140;2022-07-01T04:01:49;17.00;1.00
4637;DHT22;2331;48.806;9.140;2022-07-01T04:04:16;17.00;1.00
4637;DHT22;2331;48.806;9.140;2022-07-01T04:06:44;17.00;1.00
4637;DHT22;2331;48.806;9.140;2022-07-01T04:09:11;17.00;1.00
4637;DHT22;2331;48.806;9.140;2022-07-01T04:11:41;16.90;1.00
4637;DHT22;2331;48.806;9.140;2022-07-01T04:14:08;16.90;1.00
4637;DHT22;2331;48.806;9.140;2022-07-01T04:16:35;16.80;1.00
4637;DHT22;2331;48.806;9.140;2022-07-01T04:19:02;16.80;1.00
4637;DHT22;2331;48.806;9.140;2022-07-01T04:21:29;16.90;1.00
4637;DHT22;2331;48.806;9.140;2022-07-01T04:24:14;17.00;1.00
4637;DHT22;2331;48.806;9.140;2022-07-01T04:26:43;17.00;1.00
4637;DHT22;2331;48.806;9.140;2022-07-01T04:29:10;17.00;1.00
4637;DHT22;2331;48.806;9.140;2022-07-01T04:31:38;17.10;1.00
4637;DHT22;2331;48.806;9.140;2022-07-01T04:34:05;16.90;1.00
4637;DHT22;2331;48.806;9.140;2022-07-01T04:36:32;16.90;1.00
4637;DHT22;2331;48.806;9.140;2022-07-01T04:38:59;17.00;1.00
4637;DHT22;2331;48.806;9.140;2022-07-01T04:41:26;16.90;1.00
4637;DHT22;2331;48.806;9.140;2022-07-01T04:44:12;16.90;1.00
4637;DHT22;2331;48.806;9.140;2022-07-01T04:46:39;17.00;1.00
4637;DHT22;2331;48.806;9.140;2022-07-01T04:49:06;16.90;1.00
4637;DHT22;2331;48.806;9.140;2022-07-01T04:51:33;17.00;1.00
4637;DHT22;2331;48.806;9.140;2022-07-01T04:54:00;17.00;1.00
4637;DHT22;2331;48.806;9.140;2022-07-01T04:56:27;16.90;1.00
4637;DHT22;2331;48.806;9.140;2022-07-01T04:58:54;16.90;1.00
4637;DHT22;2331;48.806;9.140;2022-07-01T05:01:22;16.90;1.00
4637;DHT22;2331;48.806;9.140;2022-07-01T05:03:49;16.90;1.00
4637;DHT22;2331;48.806;9.140;2022-07-01T05:06:16;16.90;1.00
4637;DHT22;2331;48.806;9.140;2022-07-01T05:08:43;16.90;1.00
4637;DHT22;2331;48.806;9.140;2022-07-01T05:11:10;16.90;1.00
4637;DHT22;2331;48.806;9.140;2022-07-01T05:13:37;16.90;1.00
4637;DHT22;2331;48.806;9.140;2022-07-01T05:16:04;17.00;1.00
4637;DHT22;2331;48.806;9.140;2022-07-01T05:18:33;16.80;1.00
4637;DHT22;2331;48.806;9.140;2022-07-01T05:21:17;16.70;1.00
4637;DHT22;2331;48.806;9.140;2022-07-01T05:24:01;16.70;1.00
4637;DHT22;2331;48.806;9.140;2022-07-01T05:26:28;16.80;1.00
4637;DHT22;2331;48.806;9.140;2022-07-01T05:28:55;16.80;1.00
4637;DHT22;2331;48.806;9.140;2022-07-01T05:31:25;16.70;1.00
4637;DHT22;2331;48.806;9.140;2022-07-01T05:33:53;16.60;1.00
4637;DHT22;2331;48.806;9.140;2022-07-01T05:36:20;16.60;1.00
4637;DHT22;2331;48.806;9.140;2022-07-01T05:38:46;16.70;1.00
4637;DHT22;2331;48.806;9.140;2022-07-01T05:41:13;16.80;1.00
4637;DHT22;2331;48.806;9.140;2022-07-01T05:43:41;16.70;1.00
4637;DHT22;2331;48.806;9.140;2022-07-01T05:46:07;16.90;1.00
4637;DHT22;2331;48.806;9.140;2022-07-01T05:48:34;17.00;1.00
4637;DHT22;2331;48.806;9.140;2022-07-01T05:51:02;16.90;1.00
4637;DHT22;2331;48.806;9.140;2022-07-01T05:53:29;16.90;1.00
4637;DHT22;2331;48.806;9.140;2022-07-01T05:55:56;16.90;1.00
4637;DHT22;2331;48.806;9.140;2022-07-01T05:58:22;17.00;1.00
4637;DHT22;2331;48.806;9.140;2022-07-01T06:00:49;17.00;1.00
4637;DHT22;2331;48.806;9.140;2022-07-01T06:03:16;17.00;1.00
4637;DHT22;2331;48.806;9.140;2022-07-01T06:05:43;17.10;1.00
4637;DHT22;2331;48.806;9.140;2022-07-01T06:08:11;17.10;1.00
4637;DHT22;2331;48.806;9.140;2022-07-01T06:10:38;17.10;1.00
4637;DHT22;2331;48.806;9.140;2022-07-01T06:13:05;17.10;1.00
4637;DHT22;2331;48.806;9.140;2022-07-01T06:15:32;17.10;1.00
4637;DHT22;2331;48.806;9.140;2022-07-01T06:17:59;17.20;1.00
4637;DHT22;2331;48.806;9.140;2022-07-01T06:20:26;17.20;1.00
4637;DHT22;2331;48.806;9.140;2022-07-01T06:22:53;17.10;1.00
4637;DHT22;2331;48.806;9.140;2022-07-01T06:25:21;17.10;1.00
4637;DHT22;2331;48.806;9.140;2022-07-01T06:27:48;17.20;1.00
4637;DHT22;2331;48.806;9.140;2022-07-01T06:30:14;17.10;1.00
4637;DHT22;2331;48.806;9.140;2022-07-01T06:32:41;17.20;1.00
4637;DHT22;2331;48.806;9.140;2022-07-01T06:35:08;17.20;1.00
4637;DHT22;2331;48.806;9.140;2022-07-01T06:37:35;17.30;1.00
4637;DHT22;2331;48.806;9.140;2022-07-01T06:40:03;17.30;1.00
4637;DHT22;2331;48.806;9.140;2022-07-01T06:42:31;17.30;1.00
4637;DHT22;2331;48.806;9.140;2022-07-01T06:44:58;17.30;1.00
4637;DHT22;2331;48.806;9.140;2022-07-01T06:47:26;17.10;1.00
4637;DHT22;2331;48.806;9.140;2022-07-01T06:49:53;17.10;1.00
4637;DHT22;2331;48.806;9.140;2022-07-01T06:52:19;17.10;1.00
4637;DHT22;2331;48.806;9.140;2022-07-01T06:54:46;16.90;1.00
4637;DHT22;2331;48.806;9.140;2022-07-01T06:57:13;16.90;1.00
4637;DHT22;2331;48.806;9.140;2022-07-01T06:59:41;16.90;1.00
4637;DHT22;2331;48.806;9.140;2022-07-01T07:02:08;16.90;1.00
4637;DHT22;2331;48.806;9.140;2022-07-01T07:04:35;17.00;1.00
4637;DHT22;2331;48.806;9.140;2022-07-01T07:07:02;17.10;1.00
4637;DHT22;2331;48.806;9.140;2022-07-01T07:09:29;17.00;1.00
4637;DHT22;2331;48.806;9.140;2022-07-01T07:11:56;17.00;1.00
4637;DHT22;2331;48.806;9.140;2022-07-01T07:14:22;17.10;1.00
4637;DHT22;2331;48.806;9.140;2022-07-01T07:16:51;17.10;1.00
4637;DHT22;2331;48.806;9.140;2022-07-01T07:19:19;17.20;1.00
4637;DHT22;2331;48.806;9.140;2022-07-01T07:21:46;17.20;1.00
4637;DHT22;2331;48.806;9.140;2022-07-01T07:24:13;17.20;1.00
4637;DHT22;2331;48.806;9.140;2022-07-01T07:26:40;17.20;1.00
4637;DHT22;2331;48.806;9.140;2022-07-01T07:29:06;17.20;1.00
4637;DHT22;2331;48.806;9.140;2022-07-01T07:31:33;17.20;1.00
4637;DHT22;2331;48.806;9.140;2022-07-01T07:34:01;17.30;1.00
4637;DHT22;2331;48.806;9.140;2022-07-01T07:36:28;17.20;1.00
4637;DHT22;2331;48.806;9.140;2022-07-01T07:38:55;17.20;1.00
4637;DHT22;2331;48.806;9.140;2022-07-01T07:41:22;17.30;1.00
4637;DHT22;2331;48.806;9.140;2022-07-01T07:43:48;17.30;1.00
4637;DHT22;2331;48.806;9.140;2022-07-01T07:46:15;17.40;1.00
4637;DHT22;2331;48.806;9.140;2022-07-01T07:48:42;17.50;1.00
4637;DHT22;2331;48.806;9.140;2022-07-01T07:51:10;17.50;1.00
4637;DHT22;2331;48.806;9.140;2022-07-01T07:53:41;17.50;1.00
4637;DHT22;2331;48.806;9.140;2022-07-01T07:56:08;17.40;1.00
4637;DHT22;2331;48.806;9.140;2022-07-01T07:58:34;17.40;1.00
4637;DHT22;2331;48.806;9.140;2022-07-01T08:01:01;17.40;1.00
4637;DHT22;2331;48.806;9.140;2022-07-01T08:03:28;17.40;1.00
4637;DHT22;2331;48.806;9.140;2022-07-01T08:05:55;17.40;1.00
4637;DHT22;2331;48.806;9.140;2022-07-01T08:08:23;17.50;1.00
4637;DHT22;2331;48.806;9.140;2022-07-01T08:10:49;17.40;1.00
4637;DHT22;2331;48.806;9.140;2022-07-01T08:13:16;17.40;1.00
4637;DHT22;2331;48.806;9.140;2022-07-01T08:15:43;17.50;1.00
4637;DHT22;2331;48.806;9.140;2022-07-01T08:18:10;17.40;1.00
4637;DHT22;2331;48.806;9.140;2022-07-01T08:20:37;17.40;1.00
4637;DHT22;2331;48.806;9.140;2022-07-01T08:23:04;17.40;1.00
4637;DHT22;2331;48.806;9.140;2022-07-01T08:25:32;17.40;1.00
4637;DHT22;2331;48.806;9.140;2022-07-01T08:27:58;17.40;1.00
4637;DHT22;2331;48.806;9.140;2022-07-01T08:30:25;17.50;1.00
4637;DHT22;2331;48.806;9.140;2022-07-01T08:32:52;17.40;1.00
4637;DHT22;2331;48.806;9.140;2022-07-01T08:35:19;17.40;1.00
4637;DHT22;2331;48.806;9.140;2022-07-01T08:37:46;17.50;1.00
4637;DHT22;2331;48.806;9.140;2022-07-01T08:40:12;17.50;1.00
4637;DHT22;2331;48.806;9.140;2022-07-01T08:42:41;17.40;1.00
4637;DHT22;2331;48.806;9.140;2022-07-01T08:45:09;17.40;1.00
4637;DHT22;2331;48.806;9.140;2022-07-01T08:47:49;17.40;1.00
4637;DHT22;2331;48.806;9.140;2022-07-01T08:50:15;17.40;1.00
4637;DHT22;2331;48.806;9.140;2022-07-01T08:52:42;17.40;1.00
4637;DHT22;2331;48.806;9.140;2022-07-01T08:55:09;17.50;1.00
4637;DHT22;2331;48.806;9.140;2022-07-01T08:57:36;17.50;1.00
4637;DHT22;2331;48.806;9.140;2022-07-01T09:00:06;17.40;1.00
4637;DHT22;2331;48.806;9.140;2022-07-01T09:02:53;17.40;1.00
4637;DHT22;2331;48.806;9.140;2022-07-01T09:05:21;17.40;1.00
4637;DHT22;2331;48.806;9.140;2022-07-01T09:07:49;17.40;1.00
4637;DHT22;2331;48.806;9.140;2022-07-01T09:10:21;17.40;1.00
4637;DHT22;2331;48.806;9.140;2022-07-01T09:12:48;17.30;1.00
4637;DHT22;2331;48.806;9.140;2022-07-01T09:15:24;17.40;1.00
4637;DHT22;2331;48.806;9.140;2022-07-01T09:17:52;17.20;1.00
4637;DHT22;2331;48.806;9.140;2022-07-01T09:20:27;17.00;1.00
4637;DHT22;2331;48.806;9.140;2022-07-01T09:23:02;17.00;1.00
4637;DHT22;2331;48.806;9.140;2022-07-01T09:25:31;17.00;1.00
4637;DHT22;2331;48.806;9.140;2022-07-01T09:28:05;17.10;1.00
4637;DHT22;2331;48.806;9.140;2022-07-01T09:30:35;17.10;1.00
4637;DHT22;2331;48.806;9.140;2022-07-01T09:33:13;17.20;1.00
4637;DHT22;2331;48.806;9.140;2022-07-01T09:35:41;17.20;1.00
4637;DHT22;2331;48.806;9.140;2022-07-01T09:38:11;17.30;1.00
4637;DHT22;2331;48.806;9.140;2022-07-01T09:40:49;17.30;1.00
4637;DHT22;2331;48.806;9.140;2022-07-01T09:43:17;17.30;1.00
4637;DHT22;2331;48.806;9.140;2022-07-01T09:45:56;17.40;1.00
4637;DHT22;2331;48.806;9.140;2022-07-01T09:48:25;17.30;1.00
4637;DHT22;2331;48.806;9.140;2022-07-01T09:50:52;17.40;1.00
4637;DHT22;2331;48.806;9.140;2022-07-01T09:53:19;17.40;1.00
4637;DHT22;2331;48.806;9.140;2022-07-01T09:55:46;17.40;1.00
4637;DHT22;2331;48.806;9.140;2022-07-01T09:58:13;17.40;1.00
4637;DHT22;2331;48.806;9.140;2022-07-01T10:00:41;17.40;1.00
4637;DHT22;2331;48.806;9.140;2022-07-01T10:03:10;17.50;1.00
4637;DHT22;2331;48.806;9.140;2022-07-01T10:05:41;17.50;1.00
4637;DHT22;2331;48.806;9.140;2022-07-01T10:08:26;17.50;1.00
4637;DHT22;2331;48.806;9.140;2022-07-01T10:11:01;17.60;1.00
4637;DHT22;2331;48.806;9.140;2022-07-01T10:13:34;17.60;1.00
4637;DHT22;2331;48.806;9.140;2022-07-01T10:16:03;17.70;1.00
4637;DHT22;2331;48.806;9.140;2022-07-01T10:18:32;17.50;1.00
4637;DHT22;2331;48.806;9.140;2022-07-01T10:20:58;17.50;1.00
4637;DHT22;2331;48.806;9.140;2022-07-01T10:23:29;17.50;1.00
4637;DHT22;2331;48.806;9.140;2022-07-01T10:26:04;17.60;1.00
4637;DHT22;2331;48.806;9.140;2022-07-01T10:28:41;17.70;1.00
4637;DHT22;2331;48.806;9.140;2022-07-01T10:31:10;17.80;1.00
4637;DHT22;2331;48.806;9.140;2022-07-01T10:33:47;17.90;1.00
4637;DHT22;2331;48.806;9.140;2022-07-01T10:36:24;17.80;1.00
4637;DHT22;2331;48.806;9.140;2022-07-01T10:39:13;17.90;1.00
4637;DHT22;2331;48.806;9.140;2022-07-01T10:41:41;18.00;1.00
4637;DHT22;2331;48.806;9.140;2022-07-01T10:44:09;17.90;1.00
4637;DHT22;2331;48.806;9.140;2022-07-01T10:46:40;18.00;1.00
4637;DHT22;2331;48.806;9.140;2022-07-01T10:49:54;18.00;1.00
4637;DHT22;2331;48.806;9.140;2022-07-01T10:52:21;17.90;1.00
4637;DHT22;2331;48.806;9.140;2022-07-01T10:54:50;18.10;1.00
4637;DHT22;2331;48.806;9.140;2022-07-01T10:57:20;18.20;1.00
4637;DHT22;2331;48.806;9.140;2022-07-01T10:59:50;18.20;1.00
4637;DHT22;2331;48.806;9.140;2022-07-01T11:02:18;18.20;1.00
4637;DHT22;2331;48.806;9.140;2022-07-01T11:04:46;18.30;1.00
4637;DHT22;2331;48.806;9.140;2022-07-01T11:07:14;18.40;1.00
4637;DHT22;2331;48.806;9.140;2022-07-01T11:09:40;18.40;1.00
4637;DHT22;2331;48.806;9.140;2022-07-01T11:12:08;18.40;1.00
4637;DHT22;2331;48.806;9.140;2022-07-01T11:14:36;18.50;1.00
4637;DHT22;2331;48.806;9.140;2022-07-01T11:17:04;18.50;1.00
4637;DHT22;2331;48.806;9.140;2022-07-01T11:19:31;18.60;1.00
4637;DHT22;2331;48.806;9.140;2022-07-01T11:21:58;18.60;1.00
4637;DHT22;2331;48.806;9.140;2022-07-01T11:24:26;18.60;1.00
4637;DHT22;2331;48.806;9.140;2022-07-01T11:26:55;18.50;1.00
4637;DHT22;2331;48.806;9.140;2022-07-01T11:29:25;18.60;1.00
4637;DHT22;2331;48.806;9.140;2022-07-01T11:31:52;18.70;1.00
4637;DHT22;2331;48.806;9.140;2022-07-01T11:34:19;18.70;1.00
4637;DHT22;2331;48.806;9.140;2022-07-01T11:36:47;18.80;1.00
4637;DHT22;2331;48.806;9.140;2022-07-01T11:39:33;18.90;1.00
4637;DHT22;2331;48.806;9.140;2022-07-01T11:42:04;19.00;1.00
4637;DHT22;2331;48.806;9.140;2022-07-01T11:44:33;19.00;1.00
4637;DHT22;2331;48.806;9.140;2022-07-01T11:47:00;19.10;1.00
4637;DHT22;2331;48.806;9.140;2022-07-01T11:49:27;19.10;1.00
4637;DHT22;2331;48.806;9.140;2022-07-01T11:51:55;19.20;1.00
4637;DHT22;2331;48.806;9.140;2022-07-01T11:54:22;19.30;1.00
4637;DHT22;2331;48.806;9.140;2022-07-01T11:56:51;19.40;1.00
4637;DHT22;2331;48.806;9.140;2022-07-01T11:59:18;19.50;1.00
4637;DHT22;2331;48.806;9.140;2022-07-01T12:01:51;19.50;1.00
4637;DHT22;2331;48.806;9.140;2022-07-01T12:04:19;19.60;1.00
4637;DHT22;2331;48.806;9.140;2022-07-01T12:06:46;19.50;1.00
4637;DHT22;2331;48.806;9.140;2022-07-01T12:09:14;19.60;1.00
4637;DHT22;2331;48.806;9.140;2022-07-01T12:11:44;19.50;1.00
4637;DHT22;2331;48.806;9.140;2022-07-01T12:14:19;19.50;1.00
4637;DHT22;2331;48.806;9.140;2022-07-01T12:16:46;19.40;1.00
4637;DHT22;2331;48.806;9.140;2022-07-01T12:19:13;19.60;1.00
4637;DHT22;2331;48.806;9.140;2022-07-01T12:21:48;19.70;1.00
4637;DHT22;2331;48.806;9.140;2022-07-01T12:24:16;19.60;1.00
4637;DHT22;2331;48.806;9.140;2022-07-01T12:26:49;19.70;1.00
4637;DHT22;2331;48.806;9.140;2022-07-01T12:29:19;19.70;1.00
4637;DHT22;2331;48.806;9.140;2022-07-01T12:31:55;19.80;1.00
4637;DHT22;2331;48.806;9.140;2022-07-01T12:34:22;19.80;1.00
4637;DHT22;2331;48.806;9.140;2022-07-01T12:36:49;19.90;1.00
4637;DHT22;2331;48.806;9.140;2022-07-01T12:39:16;19.90;1.00
4637;DHT22;2331;48.806;9.140;2022-07-01T12:41:50;19.80;1.00
4637;DHT22;2331;48.806;9.140;2022-07-01T12:44:22;19.90;1.00
4637;DHT22;2331;48.806;9.140;2022-07-01T12:46:49;19.90;1.00
4637;DHT22;2331;48.806;9.140;2022-07-01T12:49:20;20.00;1.00
4637;DHT22;2331;48.806;9.140;2022-07-01T12:51:47;20.10;1.00
4637;DHT22;2331;48.806;9.140;2022-07-01T12:54:30;20.10;1.00
4637;DHT22;2331;48.806;9.140;2022-07-01T12:56:58;20.20;1.00
4637;DHT22;2331;48.806;9.140;2022-07-01T12:59:27;20.20;1.00
4637;DHT22;2331;48.806;9.140;2022-07-01T13:01:54;20.20;1.00
4637;DHT22;2331;48.806;9.140;2022-07-01T13:04:24;20.30;1.00
4637;DHT22;2331;48.806;9.140;2022-07-01T13:06:51;20.30;1.00
4637;DHT22;2331;48.806;9.140;2022-07-01T13:09:18;20.30;1.00
4637;DHT22;2331;48.806;9.140;2022-07-01T13:11:45;20.40;1.00
4637;DHT22;2331;48.806;9.140;2022-07-01T13:14:12;20.40;1.00
4637;DHT22;2331;48.806;9.140;2022-07-01T13:16:40;20.50;1.00
4637;DHT22;2331;48.806;9.140;2022-07-01T13:19:07;20.50;1.00
4637;DHT22;2331;48.806;9.140;2022-07-01T13:21:34;20.60;1.00
4637;DHT22;2331;48.806;9.140;2022-07-01T13:24:01;20.70;1.00
4637;DHT22;2331;48.806;9.140;2022-07-01T13:26:28;20.70;1.00
4637;DHT22;2331;48.806;9.140;2022-07-01T13:28:54;20.70;1.00
4637;DHT22;2331;48.806;9.140;2022-07-01T13:31:21;20.80;1.00
4637;DHT22;2331;48.806;9.140;2022-07-01T13:33:49;20.80;1.00
4637;DHT22;2331;48.806;9.140;2022-07-01T13:36:16;20.80;1.00
4637;DHT22;2331;48.806;9.140;2022-07-01T13:38:43;20.90;1.00
4637;DHT22;2331;48.806;9.140;2022-07-01T13:41:09;20.90;1.00
4637;DHT22;2331;48.806;9.140;2022-07-01T13:43:36;21.00;1.00
4637;DHT22;2331;48.806;9.140;2022-07-01T13:46:03;21.10;1.00
4637;DHT22;2331;48.806;9.140;2022-07-01T13:48:30;21.10;1.00
4637;DHT22;2331;48.806;9.140;2022-07-01T13:50:58;21.10;1.00
4637;DHT22;2331;48.806;9.140;2022-07-01T13:53:25;21.10;1.00
4637;DHT22;2331;48.806;9.140;2022-07-01T13:55:52;21.10;1.00
4637;DHT22;2331;48.806;9.140;2022-07-01T13:58:19;21.20;1.00
4637;DHT22;2331;48.806;9.140;2022-07-01T14:00:46;21.30;1.00
4637;DHT22;2331;48.806;9.140;2022-07-01T14:03:13;21.30;1.00
4637;DHT22;2331;48.806;9.140;2022-07-01T14:05:40;21.30;1.00
4637;DHT22;2331;48.806;9.140;2022-07-01T14:08:08;21.40;1.00
4637;DHT22;2331;48.806;9.140;2022-07-01T14:10:35;21.40;1.00
4637;DHT22;2331;48.806;9.140;2022-07-01T14:13:03;21.50;1.00
4637;DHT22;2331;48.806;9.140;2022-07-01T14:15:36;21.50;1.00
4637;DHT22;2331;48.806;9.140;2022-07-01T14:18:03;21.50;1.00
4637;DHT22;2331;48.806;9.140;2022-07-01T14:20:30;21.60;1.00
4637;DHT22;2331;48.806;9.140;2022-07-01T14:22:57;21.60;1.00
4637;DHT22;2331;48.806;9.140;2022-07-01T14:25:25;21.60;1.00
4637;DHT22;2331;48.806;9.140;2022-07-01T14:27:52;21.80;1.00
4637;DHT22;2331;48.806;9.140;2022-07-01T14:30:18;21.80;1.00
4637;DHT22;2331;48.806;9.140;2022-07-01T14:32:45;21.80;1.00
4637;DHT22;2331;48.806;9.140;2022-07-01T14:35:12;22.00;1.00
4637;DHT22;2331;48.806;9.140;2022-07-01T14:37:38;22.00;1.00
4637;DHT22;2331;48.806;9.140;2022-07-01T14:40:08;21.90;1.00
4637;DHT22;2331;48.806;9.140;2022-07-01T14:42:37;22.00;1.00
4637;DHT22;2331;48.806;9.140;2022-07-01T14:45:05;22.00;1.00
4637;DHT22;2331;48.806;9.140;2022-07-01T14:47:33;22.00;1.00
4637;DHT22;2331;48.806;9.140;2022-07-01T14:49:59;22.10;1.00
4637;DHT22;2331;48.806;9.140;2022-07-01T14:52:26;22.10;1.00
4637;DHT22;2331;48.806;9.140;2022-07-01T14:54:55;22.10;1.00
4637;DHT22;2331;48.806;9.140;2022-07-01T14:57:22;22.10;1.00
4637;DHT22;2331;48.806;9.140;2022-07-01T14:59:50;22.00;1.00
4637;DHT22;2331;48.806;9.140;2022-07-01T15:02:17;22.00;1.00
4637;DHT22;2331;48.806;9.140;2022-07-01T15:04:44;22.00;1.00
4637;DHT22;2331;48.806;9.140;2022-07-01T15:07:11;22.10;1.00
4637;DHT22;2331;48.806;9.140;2022-07-01T15:09:38;22.00;1.00
4637;DHT22;2331;48.806;9.140;2022-07-01T15:12:06;22.10;1.00
4637;DHT22;2331;48.806;9.140;2022-07-01T15:14:32;22.00;1.00
4637;DHT22;2331;48.806;9.140;2022-07-01T15:17:01;22.00;1.00
4637;DHT22;2331;48.806;9.140;2022-07-01T15:19:28;22.10;1.00
4637;DHT22;2331;48.806;9.140;2022-07-01T15:21:55;22.20;1.00
4637;DHT22;2331;48.806;9.140;2022-07-01T15:24:23;22.20;1.00
4637;DHT22;2331;48.806;9.140;2022-07-01T15:26:51;22.30;1.00
4637;DHT22;2331;48.806;9.140;2022-07-01T15:29:18;22.20;1.00
4637;DHT22;2331;48.806;9.140;2022-07-01T15:31:45;22.20;1.00
4637;DHT22;2331;48.806;9.140;2022-07-01T15:34:13;22.30;1.00
4637;DHT22;2331;48.806;9.140;2022-07-01T15:36:41;22.20;1.00
4637;DHT22;2331;48.806;9.140;2022-07-01T15:39:08;22.20;1.00
4637;DHT22;2331;48.806;9.140;2022-07-01T15:41:35;22.20;1.00
4637;DHT22;2331;48.806;9.140;2022-07-01T15:44:05;22.20;1.00
4637;DHT22;2331;48.806;9.140;2022-07-01T15:46:32;22.20;1.00
4637;DHT22;2331;48.806;9.140;2022-07-01T15:49:00;22.20;1.00
4637;DHT22;2331;48.806;9.140;2022-07-01T15:51:28;22.20;1.00
4637;DHT22;2331;48.806;9.140;2022-07-01T15:53:55;22.20;1.00
4637;DHT22;2331;48.806;9.140;2022-07-01T15:56:23;22.20;1.00
4637;DHT22;2331;48.806;9.140;2022-07-01T15:58:50;22.20;1.00
4637;DHT22;2331;48.806;9.140;2022-07-01T16:01:17;22.20;1.00
4637;DHT22;2331;48.806;9.140;2022-07-01T16:03:46;22.30;1.00
4637;DHT22;2331;48.806;9.140;2022-07-01T16:06:15;22.30;1.00
4637;DHT22;2331;48.806;9.140;2022-07-01T16:08:47;22.30;1.00
4637;DHT22;2331;48.806;9.140;2022-07-01T16:11:15;22.30;1.00
4637;DHT22;2331;48.806;9.140;2022-07-01T16:13:47;22.30;1.00
4637;DHT22;2331;48.806;9.140;2022-07-01T16:16:19;22.30;1.00
4637;DHT22;2331;48.806;9.140;2022-07-01T16:18:48;22.40;1.00
4637;DHT22;2331;48.806;9.140;2022-07-01T16:21:15;22.40;1.00
4637;DHT22;2331;48.806;9.140;2022-07-01T16:23:46;22.30;1.00